Time;durP1;ratioP1;P1;durP2;ratioP2;P2;SDS_P1;SDS_P2;PMS_P1;PMS_P2;Temp;Humidity;BMP_temperature;BMP_pressure;BME280_temperature;BME280_humidity;BME280_pressure;Samples;Min_cycle;Max_cycle;Signal;HPM_P1;HPM_P2
2021/09/09 00:01:47;;;;;;;34.60;29.00;;;;;;;12.42;87.45;99399.88;111194;1203;65146;-80
2021/09/09 00:04:13;;;;;;;32.00;28.60;;;;;;;12.36;87.42;99398.50;111252;1204;61858;-80
2021/09/09 00:06:40;;;;;;;30.10;26.10;;;;;;;12.29;87.52;99397.00;111208;1204;64014;-79
2021/09/09 00:09:06;;;;;;;37.10;31.10;;;;;;;12.25;87.52;99396.94;111203;1196;61888;-79
2021/09/09 00:11:33;;;;;;;32.90;28.70;;;;;;;12.22;87.76;99395.52;111227;1197;61921;-79
2021/09/09 00:14:00;;;;;;;35.10;31.00;;;;;;;12.22;88.09;99394.48;111221;1204;65506;-79
2021/09/09 00:16:26;;;;;;;32.10;28.20;;;;;;;12.23;88.43;99395.80;111219;1204;61786;-79
2021/09/09 00:18:53;;;;;;;35.60;29.40;;;;;;;12.24;88.30;99390.59;111263;1204;64972;-79
2021/09/09 00:21:20;;;;;;;29.50;26.00;;;;;;;12.27;88.46;99388.59;111171;1204;62064;-79
2021/09/09 00:23:47;;;;;;;37.20;31.60;;;;;;;12.24;88.12;99389.14;111166;1196;61832;-79
2021/09/09 00:26:14;;;;;;;36.90;30.60;;;;;;;12.21;88.31;99393.10;111170;1204;66474;-79
2021/09/09 00:28:40;;;;;;;33.50;29.30;;;;;;;12.19;88.28;99391.12;111174;1204;61865;-79
2021/09/09 00:31:07;;;;;;;33.10;29.50;;;;;;;12.17;88.26;99393.23;111178;1203;63691;-78
2021/09/09 00:33:34;;;;;;;36.10;32.10;;;;;;;12.12;88.26;99392.09;111140;1203;61950;-79
2021/09/09 00:36:01;;;;;;;32.00;28.60;;;;;;;12.08;88.23;99389.90;111152;1198;61902;-79
2021/09/09 00:38:27;;;;;;;33.80;29.00;;;;;;;12.02;88.30;99388.82;111178;1204;66899;-79
2021/09/09 00:40:54;;;;;;;32.90;28.00;;;;;;;11.99;88.77;99387.63;111166;1204;61875;-79
2021/09/09 00:43:21;;;;;;;30.00;26.80;;;;;;;11.98;88.91;99388.79;111160;1204;64640;-80
2021/09/09 00:45:53;;;;;;;33.30;28.40;;;;;;;11.95;88.82;99386.84;111162;1204;61861;-78
2021/09/09 00:48:20;;;;;;;32.40;28.80;;;;;;;11.92;89.08;99388.27;111193;1197;61879;-81
2021/09/09 00:50:48;;;;;;;33.40;29.40;;;;;;;11.91;89.17;99388.02;111276;1204;66667;-78
2021/09/09 00:53:16;;;;;;;32.30;28.70;;;;;;;11.91;89.33;99388.71;111215;1204;61812;-80
2021/09/09 00:55:43;;;;;;;33.00;29.00;;;;;;;11.90;89.18;99388.05;111224;1203;73630;-80
2021/09/09 00:58:10;;;;;;;30.80;25.80;;;;;;;11.88;89.36;99384.08;111248;1204;61998;-78
2021/09/09 01:00:38;;;;;;;32.10;27.60;;;;;;;11.85;89.41;99383.52;111152;1204;61824;-78
2021/09/09 01:03:06;;;;;;;30.90;27.30;;;;;;;11.83;89.38;99386.50;111228;1204;67408;-79
2021/09/09 01:05:37;;;;;;;30.20;25.70;;;;;;;11.81;89.47;99384.50;111215;1204;61895;-79
2021/09/09 01:08:07;;;;;;;29.20;25.20;;;;;;;11.80;89.42;99382.79;111090;1204;64113;-79
2021/09/09 01:10:34;;;;;;;26.40;23.60;;;;;;;11.76;89.12;99386.06;111125;1196;61876;-78
2021/09/09 01:13:01;;;;;;;26.10;23.40;;;;;;;11.71;89.33;99385.38;111209;1204;61924;-79
2021/09/09 01:15:28;;;;;;;28.30;25.20;;;;;;;11.65;89.43;99384.46;111231;1204;67735;-79
2021/09/09 01:17:54;;;;;;;29.70;26.60;;;;;;;11.62;89.39;99388.73;111175;1204;61976;-79
2021/09/09 01:20:21;;;;;;;29.00;25.90;;;;;;;11.58;89.60;99387.08;111135;1204;64727;-80
2021/09/09 01:22:48;;;;;;;27.60;24.70;;;;;;;11.54;89.79;99388.55;111164;1204;61899;-79
2021/09/09 01:25:14;;;;;;;28.30;25.30;;;;;;;11.51;89.74;99389.83;111197;1204;62032;-78
2021/09/09 01:27:41;;;;;;;28.00;25.00;;;;;;;11.51;89.72;99388.95;111145;1204;66629;-78
2021/09/09 01:30:09;;;;;;;32.90;26.40;;;;;;;11.50;89.91;99388.14;111160;1204;61850;-78
2021/09/09 01:32:35;;;;;;;29.10;26.10;;;;;;;11.51;90.07;99388.79;111156;1204;72817;-78
2021/09/09 01:35:02;;;;;;;32.30;29.10;;;;;;;11.51;89.80;99388.05;111163;1204;61986;-78
2021/09/09 01:37:29;;;;;;;34.50;30.90;;;;;;;11.49;89.86;99390.55;111147;1204;61881;-80
2021/09/09 01:39:55;;;;;;;28.90;25.90;;;;;;;11.46;89.86;99388.37;111196;1204;65229;-79
2021/09/09 01:42:22;;;;;;;29.80;26.50;;;;;;;11.41;89.78;99392.05;111191;1204;61816;-79
2021/09/09 01:44:49;;;;;;;30.60;27.20;;;;;;;11.36;89.71;99390.42;111194;1204;62374;-79
2021/09/09 01:47:15;;;;;;;32.70;28.50;;;;;;;11.33;89.81;99389.55;111166;1196;61988;-79
2021/09/09 01:49:42;;;;;;;27.70;24.20;;;;;;;11.30;90.12;99388.70;111168;1204;61880;-79
2021/09/09 01:52:08;;;;;;;32.10;27.60;;;;;;;11.29;90.23;99385.90;111157;1204;66667;-79
2021/09/09 01:54:35;;;;;;;27.00;24.10;;;;;;;11.30;90.12;99383.90;111140;1203;61894;-78
2021/09/09 01:57:02;;;;;;;27.10;24.10;;;;;;;11.29;90.13;99383.23;111156;1204;62613;-79
2021/09/09 01:59:29;;;;;;;35.70;31.20;;;;;;;11.28;90.17;99385.64;111189;1204;61902;-78
2021/09/09 02:01:56;;;;;;;37.70;33.80;;;;;;;11.27;90.49;99386.91;111168;1196;61828;-79
2021/09/09 02:04:23;;;;;;;35.70;32.10;;;;;;;11.27;90.46;99387.80;111004;1196;67748;-82
2021/09/09 02:06:50;;;;;;;37.50;33.90;;;;;;;11.26;90.36;99388.39;110939;1196;61838;-79
2021/09/09 02:09:16;;;;;;;35.40;31.80;;;;;;;11.25;90.42;99393.45;110991;1204;73750;-80
2021/09/09 02:11:43;;;;;;;39.20;35.20;;;;;;;11.24;90.41;99393.34;111224;1196;61916;-80
2021/09/09 02:14:09;;;;;;;36.20;32.30;;;;;;;11.22;90.67;99392.57;111239;1204;61813;-81
2021/09/09 02:16:36;;;;;;;33.60;30.10;;;;;;;11.20;90.77;99391.06;111273;1204;67423;-80
2021/09/09 02:19:02;;;;;;;33.20;29.70;;;;;;;11.16;90.52;99391.89;111299;1204;61903;-78
2021/09/09 02:21:29;;;;;;;31.90;27.90;;;;;;;11.12;90.51;99390.39;111141;1204;63771;-84
2021/09/09 02:23:56;;;;;;;27.80;24.90;;;;;;;11.09;90.60;99385.23;111277;1204;61890;-81
2021/09/09 02:26:22;;;;;;;29.50;26.30;;;;;;;11.07;90.87;99380.70;111295;1204;61879;-81
2021/09/09 02:28:49;;;;;;;28.40;25.30;;;;;;;11.08;90.98;99382.44;111308;1204;65524;-79
2021/09/09 02:31:16;;;;;;;25.00;22.30;;;;;;;11.08;90.88;99383.17;111176;1204;61804;-79
2021/09/09 02:33:42;;;;;;;26.60;22.70;;;;;;;11.08;91.18;99379.94;111074;1204;64987;-81
2021/09/09 02:36:09;;;;;;;29.20;24.50;;;;;;;11.10;91.18;99377.52;111131;1197;61878;-78
2021/09/09 02:38:36;;;;;;;23.80;21.30;;;;;;;11.10;91.05;99379.11;111177;1197;61829;-78
2021/09/09 02:41:04;;;;;;;27.60;23.60;;;;;;;11.10;91.12;99379.46;111189;1204;67726;-78
2021/09/09 02:43:30;;;;;;;27.00;24.10;;;;;;;11.10;91.18;99381.04;111149;1197;61987;-78
2021/09/09 02:45:57;;;;;;;30.70;26.20;;;;;;;11.09;91.21;99378.24;111159;1204;62336;-79
2021/09/09 02:48:24;;;;;;;27.50;24.50;;;;;;;11.06;91.09;99379.54;111187;1204;61893;-78
2021/09/09 02:50:50;;;;;;;24.70;22.10;;;;;;;10.99;91.07;99379.59;111171;1204;61835;-78
2021/09/09 02:53:17;;;;;;;24.10;21.50;;;;;;;10.94;91.06;99376.73;111172;1204;66818;-78
2021/09/09 02:55:43;;;;;;;25.30;22.10;;;;;;;10.90;90.94;99378.20;111102;1204;61822;-78
2021/09/09 02:58:10;;;;;;;25.40;22.80;;;;;;;10.86;90.94;99378.13;111151;1204;62331;-78
2021/09/09 03:00:37;;;;;;;24.70;22.10;;;;;;;10.83;91.16;99379.93;111169;1197;61812;-78
2021/09/09 03:03:03;;;;;;;24.70;22.10;;;;;;;10.81;91.26;99380.05;111181;1204;61835;-78
2021/09/09 03:05:30;;;;;;;24.60;21.20;;;;;;;10.80;91.46;99379.23;111197;1203;66377;-78
2021/09/09 03:07:57;;;;;;;24.10;20.20;;;;;;;10.80;91.77;99376.34;111167;1204;61855;-78
2021/09/09 03:10:23;;;;;;;23.80;20.40;;;;;;;10.85;91.84;99377.83;111160;1203;62318;-78
2021/09/09 03:12:50;;;;;;;23.00;19.70;;;;;;;10.88;91.76;99381.37;111167;1204;61896;-78
2021/09/09 03:15:16;;;;;;;23.50;20.50;;;;;;;10.89;91.41;99381.30;111187;1197;61863;-79
2021/09/09 03:17:43;;;;;;;24.30;21.70;;;;;;;10.85;91.24;99382.27;111188;1203;66457;-80
2021/09/09 03:20:12;;;;;;;24.00;21.50;;;;;;;10.80;91.39;99383.10;111208;1204;61922;-78
2021/09/09 03:22:39;;;;;;;23.00;20.70;;;;;;;10.74;91.24;99383.66;111202;1204;63839;-79
2021/09/09 03:25:05;;;;;;;24.50;21.90;;;;;;;10.68;91.14;99387.06;111100;1197;61842;-78
2021/09/09 03:27:32;;;;;;;25.80;22.70;;;;;;;10.63;91.28;99387.71;111137;1203;61825;-78
2021/09/09 03:29:59;;;;;;;23.70;18.40;;;;;;;10.59;91.38;99385.63;111147;1204;67775;-79
2021/09/09 03:32:25;;;;;;;25.70;18.90;;;;;;;10.53;91.16;99383.66;111134;1204;62043;-78
2021/09/09 03:34:52;;;;;;;19.70;16.90;;;;;;;10.49;91.21;99382.30;111124;1204;63834;-79
2021/09/09 03:37:19;;;;;;;22.90;20.50;;;;;;;10.49;91.46;99382.34;111155;1204;61873;-78
2021/09/09 03:39:45;;;;;;;21.50;19.20;;;;;;;10.48;91.52;99382.39;111159;1204;61847;-79
2021/09/09 03:42:12;;;;;;;20.30;18.40;;;;;;;10.45;91.34;99379.00;111165;1204;66842;-79
2021/09/09 03:44:39;;;;;;;22.30;19.90;;;;;;;10.42;91.39;99379.73;111171;1203;61953;-78
2021/09/09 03:47:05;;;;;;;20.20;17.80;;;;;;;10.39;91.27;99385.24;111115;1204;64635;-80
2021/09/09 03:49:32;;;;;;;21.50;17.70;;;;;;;10.34;91.16;99384.66;111123;1199;61912;-78
2021/09/09 03:51:58;;;;;;;21.70;18.80;;;;;;;10.29;91.34;99383.38;111130;1204;61821;-78
2021/09/09 03:54:25;;;;;;;20.60;16.90;;;;;;;10.25;91.47;99381.04;111185;1203;66526;-81
2021/09/09 03:56:52;;;;;;;17.30;15.40;;;;;;;10.23;91.27;99379.96;111257;1203;61816;-79
2021/09/09 03:59:18;;;;;;;19.50;16.70;;;;;;;10.19;91.25;99378.60;111183;1204;64106;-78
2021/09/09 04:01:45;;;;;;;24.00;20.80;;;;;;;10.15;91.39;99378.65;111155;1197;61820;-78
2021/09/09 04:04:12;;;;;;;21.40;17.00;;;;;;;10.14;91.62;99378.38;111150;1197;61864;-78
2021/09/09 04:06:39;;;;;;;23.40;17.80;;;;;;;10.14;91.55;99380.11;111171;1204;76358;-78
2021/09/09 04:09:05;;;;;;;21.70;18.30;;;;;;;10.16;91.61;99380.55;111160;1204;61964;-78
2021/09/09 04:11:32;;;;;;;20.10;17.30;;;;;;;10.17;91.62;99378.85;111160;1204;63643;-78
2021/09/09 04:13:59;;;;;;;19.90;16.70;;;;;;;10.21;91.68;99378.97;111165;1204;61904;-78
2021/09/09 04:16:25;;;;;;;24.50;18.80;;;;;;;10.24;91.65;99380.08;111186;1204;61848;-79
2021/09/09 04:18:52;;;;;;;22.40;20.20;;;;;;;10.28;91.80;99379.99;111166;1204;66460;-81
2021/09/09 04:21:18;;;;;;;26.40;20.50;;;;;;;10.31;91.65;99380.03;111221;1197;61839;-78
2021/09/09 04:23:45;;;;;;;22.00;19.70;;;;;;;10.31;91.61;99379.82;111170;1204;62597;-81
2021/09/09 04:26:12;;;;;;;24.00;19.90;;;;;;;10.31;91.62;99376.84;111228;1198;61831;-81
2021/09/09 04:28:38;;;;;;;22.40;20.00;;;;;;;10.32;91.69;99372.32;111256;1197;61864;-80
2021/09/09 04:31:05;;;;;;;21.10;18.90;;;;;;;10.51;91.89;99377.25;111190;1196;66796;-81
2021/09/09 04:33:32;;;;;;;24.80;19.00;;;;;;;10.88;91.33;99375.15;111228;1204;68435;-81
2021/09/09 04:35:58;;;;;;;24.40;20.30;;;;;;;11.18;90.75;99379.33;111213;1204;63986;-81
2021/09/09 04:38:25;;;;;;;22.70;20.30;;;;;;;11.53;90.40;99377.45;111203;1203;61920;-78
2021/09/09 04:40:51;;;;;;;24.40;21.90;;;;;;;11.84;89.95;99370.27;111145;1196;63378;-80
2021/09/09 04:43:18;;;;;;;25.50;22.70;;;;;;;11.94;89.63;99368.88;111209;1204;66932;-81
2021/09/09 04:45:45;;;;;;;25.80;22.60;;;;;;;12.00;89.66;99371.39;111221;1204;61735;-81
2021/09/09 04:48:11;;;;;;;25.80;23.20;;;;;;;12.33;89.12;99368.39;111248;1204;63304;-78
2021/09/09 04:50:38;;;;;;;23.20;20.90;;;;;;;12.69;88.49;99367.34;111176;1197;61822;-78
2021/09/09 04:53:05;;;;;;;25.90;21.70;;;;;;;13.12;87.65;99365.97;111162;1204;61852;-80
2021/09/09 04:55:31;;;;;;;24.50;21.90;;;;;;;13.51;87.00;99365.86;111187;1203;65229;-79
2021/09/09 04:57:58;;;;;;;21.60;19.50;;;;;;;13.80;86.22;99363.48;111155;1204;61877;-80
2021/09/09 05:00:25;;;;;;;22.40;20.20;;;;;;;14.06;85.57;99364.77;111169;1204;64799;-81
2021/09/09 05:02:51;;;;;;;22.70;19.00;;;;;;;14.36;84.80;99363.59;111229;1204;61864;-79
2021/09/09 05:05:18;;;;;;;21.40;19.10;;;;;;;14.67;84.28;99361.34;111150;1204;61902;-78
2021/09/09 05:07:45;;;;;;;22.50;19.40;;;;;;;14.88;83.62;99363.14;111188;1203;65400;-79
2021/09/09 05:10:12;;;;;;;21.00;18.80;;;;;;;15.09;83.20;99362.38;111208;1203;61884;-79
2021/09/09 05:12:39;;;;;;;20.00;18.10;;;;;;;15.38;82.72;99362.03;111142;1204;64304;-77
2021/09/09 05:15:07;;;;;;;21.70;19.40;;;;;;;15.59;82.12;99358.85;111189;1198;61908;-79
2021/09/09 05:17:33;;;;;;;20.30;17.90;;;;;;;15.80;81.75;99356.64;111249;1204;61803;-83
2021/09/09 05:20:01;;;;;;;20.00;17.80;;;;;;;16.04;81.28;99354.66;111247;1197;66616;-81
2021/09/09 05:22:27;;;;;;;19.80;17.70;;;;;;;16.23;80.81;99351.82;111222;1204;61903;-81
2021/09/09 05:24:54;;;;;;;19.50;17.50;;;;;;;16.40;80.09;99346.77;111191;1204;62459;-82
2021/09/09 05:27:21;;;;;;;22.10;16.80;;;;;;;16.51;79.81;99346.35;111252;1204;61995;-81
2021/09/09 05:29:47;;;;;;;20.10;18.00;;;;;;;16.65;79.68;99340.85;111195;1196;61951;-80
2021/09/09 05:32:14;;;;;;;19.00;16.80;;;;;;;16.77;79.11;99340.38;111203;1203;65539;-81
2021/09/09 05:34:40;;;;;;;18.60;16.80;;;;;;;16.92;78.84;99337.08;111220;1204;61800;-79
2021/09/09 05:37:07;;;;;;;18.80;16.80;;;;;;;17.04;78.36;99332.76;111157;1204;63940;-79
2021/09/09 05:39:33;;;;;;;19.60;17.20;;;;;;;17.15;77.97;99331.48;111124;1197;61900;-79
2021/09/09 05:42:00;;;;;;;18.40;16.60;;;;;;;17.23;77.52;99334.89;111154;1197;61898;-79
2021/09/09 05:44:27;;;;;;;18.50;16.50;;;;;;;17.34;77.46;99335.68;111160;1204;65471;-78
2021/09/09 05:46:53;;;;;;;17.50;15.80;;;;;;;17.47;77.04;99335.38;111115;1204;61870;-81
2021/09/09 05:49:20;;;;;;;17.20;15.50;;;;;;;17.52;76.79;99333.86;111171;1204;64942;-79
2021/09/09 05:51:47;;;;;;;16.80;15.00;;;;;;;17.57;76.52;99335.79;111129;1204;61913;-79
2021/09/09 05:54:14;;;;;;;17.70;16.10;;;;;;;17.64;76.28;99335.15;111111;1198;61945;-79
2021/09/09 05:56:40;;;;;;;16.00;14.50;;;;;;;17.77;76.27;99332.95;111196;1204;66617;-79
2021/09/09 05:59:07;;;;;;;17.00;15.20;;;;;;;17.95;76.10;99330.73;111177;1204;61860;-79
2021/09/09 06:01:35;;;;;;;15.80;14.20;;;;;;;18.09;75.87;99329.45;111131;1203;62724;-79
2021/09/09 06:04:03;;;;;;;16.70;15.00;;;;;;;18.22;75.44;99328.37;111200;1204;61854;-79
2021/09/09 06:06:29;;;;;;;17.70;15.80;;;;;;;18.32;75.29;99328.36;111122;1198;61927;-79
2021/09/09 06:08:56;;;;;;;16.20;14.70;;;;;;;18.44;74.93;99328.11;111113;1204;76673;-79
2021/09/09 06:11:23;;;;;;;16.80;15.20;;;;;;;18.54;74.76;99330.83;111183;1204;61893;-79
2021/09/09 06:13:49;;;;;;;16.40;14.30;;;;;;;18.64;74.17;99334.53;111160;1204;62751;-79
2021/09/09 06:16:16;;;;;;;16.70;14.80;;;;;;;18.68;73.63;99330.44;111103;1197;61967;-79
2021/09/09 06:18:43;;;;;;;19.00;16.20;;;;;;;18.61;73.15;99326.50;111182;1204;61921;-79
2021/09/09 06:21:10;;;;;;;17.80;15.30;;;;;;;18.58;73.20;99324.28;111121;1203;66850;-79
2021/09/09 06:23:37;;;;;;;19.00;16.90;;;;;;;18.55;73.23;99322.04;111137;1204;61777;-79
2021/09/09 06:26:03;;;;;;;17.90;16.20;;;;;;;18.49;72.95;99320.81;111149;1204;63949;-79
2021/09/09 06:28:30;;;;;;;16.80;15.10;;;;;;;18.31;73.10;99320.90;111120;1204;61850;-79
2021/09/09 06:30:57;;;;;;;17.80;16.20;;;;;;;18.00;73.34;99323.24;111170;1204;61805;-80
2021/09/09 06:33:24;;;;;;;17.40;15.60;;;;;;;17.73;74.14;99323.55;111125;1204;67390;-79
2021/09/09 06:35:50;;;;;;;16.80;15.30;;;;;;;17.56;74.86;99320.61;111187;1204;61900;-79
2021/09/09 06:38:17;;;;;;;18.20;16.30;;;;;;;17.40;75.16;99319.39;111169;1204;63646;-78
2021/09/09 06:40:44;;;;;;;16.40;14.70;;;;;;;17.25;75.25;99315.33;111151;1197;61909;-79
2021/09/09 06:43:10;;;;;;;17.80;15.50;;;;;;;17.10;75.30;99314.15;111143;1197;61881;-80
2021/09/09 06:45:37;;;;;;;18.10;16.20;;;;;;;16.94;75.51;99317.88;111196;1204;66483;-79
2021/09/09 06:48:04;;;;;;;15.80;14.20;;;;;;;16.82;75.87;99318.06;111143;1204;61897;-79
2021/09/09 06:50:31;;;;;;;16.30;14.30;;;;;;;16.78;76.43;99320.73;111171;1204;64986;-79
2021/09/09 06:52:57;;;;;;;16.50;14.60;;;;;;;16.80;76.94;99318.81;111178;1198;61838;-79
2021/09/09 06:55:24;;;;;;;15.40;13.30;;;;;;;16.82;77.09;99314.65;111162;1204;61880;-79
2021/09/09 06:57:51;;;;;;;14.40;12.90;;;;;;;16.83;77.13;99313.61;111148;1204;67785;-79
2021/09/09 07:00:18;;;;;;;17.90;16.10;;;;;;;16.85;77.16;99315.05;111168;1204;62232;-78
2021/09/09 07:02:45;;;;;;;16.30;14.50;;;;;;;16.93;77.54;99316.71;111155;1204;64021;-78
2021/09/09 07:05:12;;;;;;;14.70;13.20;;;;;;;17.03;77.62;99314.44;111104;1204;61835;-79
2021/09/09 07:07:39;;;;;;;15.20;12.20;;;;;;;17.11;77.48;99313.55;111146;1195;61854;-79
2021/09/09 07:10:07;;;;;;;14.20;12.70;;;;;;;17.20;77.37;99314.72;111149;1204;65454;-79
2021/09/09 07:12:34;;;;;;;14.00;12.70;;;;;;;17.26;76.91;99315.38;111193;1204;61889;-79
2021/09/09 07:15:02;;;;;;;13.10;11.70;;;;;;;17.30;76.67;99314.90;111128;1204;64026;-79
2021/09/09 07:17:29;;;;;;;13.20;11.80;;;;;;;17.38;76.84;99318.65;111214;1204;61925;-79
2021/09/09 07:19:56;;;;;;;12.00;10.70;;;;;;;17.47;76.49;99319.08;111198;1204;61764;-79
2021/09/09 07:22:23;;;;;;;12.40;10.70;;;;;;;17.57;76.10;99315.13;111159;1203;66843;-79
2021/09/09 07:24:49;;;;;;;15.00;11.40;;;;;;;17.70;76.23;99317.95;111193;1204;61879;-78
2021/09/09 07:27:16;;;;;;;11.80;10.70;;;;;;;17.82;76.10;99320.59;111138;1204;63588;-79
2021/09/09 07:29:43;;;;;;;12.70;11.30;;;;;;;17.90;75.93;99319.15;111103;1195;61922;-79
2021/09/09 07:32:09;;;;;;;13.80;12.30;;;;;;;18.00;75.99;99321.65;111122;1204;61880;-79
2021/09/09 07:34:36;;;;;;;15.20;11.70;;;;;;;18.04;75.74;99322.20;111171;1204;66814;-81
2021/09/09 07:37:03;;;;;;;12.70;10.30;;;;;;;18.09;75.58;99320.23;111224;1204;61922;-79
2021/09/09 07:39:29;;;;;;;16.40;10.60;;;;;;;18.17;75.15;99317.52;111236;1204;64732;-79
2021/09/09 07:41:56;;;;;;;10.50;9.40;;;;;;;18.28;74.96;99317.27;111146;1204;61893;-79
2021/09/09 07:44:23;;;;;;;10.50;9.20;;;;;;;18.43;75.40;99320.65;111186;1203;61862;-79
2021/09/09 07:46:49;;;;;;;12.40;9.80;;;;;;;18.58;75.11;99324.11;111158;1204;65450;-79
2021/09/09 07:49:16;;;;;;;13.50;10.00;;;;;;;18.69;74.64;99323.48;111184;1204;61883;-79
2021/09/09 07:51:45;;;;;;;13.20;10.80;;;;;;;18.78;74.56;99321.39;111235;1204;63837;-80
2021/09/09 07:54:12;;;;;;;11.50;9.60;;;;;;;18.84;73.99;99323.45;111208;1204;61809;-80
2021/09/09 07:56:38;;;;;;;10.10;9.20;;;;;;;18.90;73.84;99324.55;111290;1197;61957;-80
2021/09/09 07:59:05;;;;;;;10.00;9.00;;;;;;;18.99;74.06;99324.06;111280;1204;66670;-80
2021/09/09 08:01:32;;;;;;;12.30;9.60;;;;;;;19.07;73.61;99322.84;111236;1204;62510;-80
2021/09/09 08:03:58;;;;;;;10.90;9.50;;;;;;;19.14;73.16;99322.58;111226;1204;63952;-80
2021/09/09 08:06:25;;;;;;;9.80;8.90;;;;;;;19.21;73.22;99320.95;111194;1204;61874;-81
2021/09/09 08:08:52;;;;;;;14.90;9.00;;;;;;;19.30;72.91;99320.27;111264;1204;61978;-81
2021/09/09 08:11:18;;;;;;;11.30;8.60;;;;;;;19.39;72.81;99314.35;111251;1204;67750;-79
2021/09/09 08:13:45;;;;;;;11.10;9.50;;;;;;;19.48;72.52;99314.11;111243;1204;61813;-79
2021/09/09 08:16:12;;;;;;;10.90;9.80;;;;;;;19.57;72.32;99316.57;111256;1204;64967;-80
2021/09/09 08:18:39;;;;;;;10.30;9.30;;;;;;;19.63;72.17;99311.64;111226;1204;62002;-81
2021/09/09 08:21:05;;;;;;;10.60;9.50;;;;;;;19.68;72.04;99312.16;111249;1196;61898;-84
2021/09/09 08:23:32;;;;;;;11.50;9.50;;;;;;;19.75;71.89;99310.78;111285;1204;66843;-80
2021/09/09 08:25:59;;;;;;;9.70;8.80;;;;;;;19.83;71.81;99307.48;111311;1204;61873;-81
2021/09/09 08:28:26;;;;;;;10.40;8.40;;;;;;;19.95;71.75;99305.90;111228;1204;62616;-82
2021/09/09 08:30:52;;;;;;;10.50;8.00;;;;;;;20.07;71.37;99306.10;111253;1197;63394;-83
2021/09/09 08:33:19;;;;;;;11.10;9.50;;;;;;;20.17;71.05;99302.77;111256;1197;61880;-81
2021/09/09 08:35:45;;;;;;;10.30;9.30;;;;;;;20.28;71.05;99298.26;111269;1204;65441;-82
2021/09/09 08:38:12;;;;;;;11.80;9.40;;;;;;;20.35;70.50;99297.91;111234;1204;61806;-82
2021/09/09 08:40:40;;;;;;;9.60;8.60;;;;;;;20.42;70.39;99296.23;111225;1204;64957;-80
2021/09/09 08:43:08;;;;;;;9.30;8.50;;;;;;;20.57;70.29;99297.04;111199;1204;61872;-80
2021/09/09 08:45:35;;;;;;;10.40;9.30;;;;;;;20.71;69.56;99297.98;111137;1204;61847;-80
2021/09/09 08:48:05;;;;;;;10.60;9.10;;;;;;;20.81;69.38;99299.98;111257;1204;65165;-80
2021/09/09 08:50:32;;;;;;;10.40;8.40;;;;;;;20.93;69.18;99300.88;111285;1204;61893;-81
2021/09/09 08:53:00;;;;;;;8.80;7.90;;;;;;;21.06;69.31;99301.48;111188;1198;64911;-81
2021/09/09 08:55:27;;;;;;;9.30;8.40;;;;;;;21.18;68.81;99299.48;111244;1204;61898;-81
2021/09/09 08:57:59;;;;;;;9.20;8.30;;;;;;;21.30;68.63;99299.48;111191;1198;61809;-80
2021/09/09 09:00:27;;;;;;;9.20;7.90;;;;;;;21.42;68.42;99296.02;111187;1204;67740;-80
2021/09/09 09:02:57;;;;;;;8.50;7.70;;;;;;;21.55;68.01;99294.34;111257;1204;61889;-80
2021/09/09 09:05:25;;;;;;;9.10;8.00;;;;;;;21.66;67.88;99290.94;111230;1204;64014;-80
2021/09/09 09:08:00;;;;;;;8.90;8.10;;;;;;;21.75;66.69;99291.11;111206;1204;61928;-78
2021/09/09 09:10:28;;;;;;;10.70;7.90;;;;;;;21.81;66.50;99289.70;111232;1200;61893;-79
2021/09/09 09:12:55;;;;;;;11.40;9.00;;;;;;;21.89;66.05;99287.30;111226;1204;66847;-79
2021/09/09 09:15:22;;;;;;;11.10;7.70;;;;;;;21.95;65.95;99284.36;111184;1198;62021;-81
2021/09/09 09:18:07;;;;;;;7.90;6.90;;;;;;;22.06;65.99;99281.54;111239;1204;63827;-82
2021/09/09 09:20:45;;;;;;;9.40;6.60;;;;;;;22.16;64.63;99282.42;111257;1204;61936;-79
2021/09/09 09:23:25;;;;;;;9.20;6.60;;;;;;;22.22;63.76;99275.42;111172;1204;61776;-81
2021/09/09 09:26:02;;;;;;;8.00;6.70;;;;;;;22.35;64.03;99273.66;111310;1204;66652;-81
2021/09/09 09:28:38;;;;;;;7.10;6.40;;;;;;;22.47;63.34;99273.67;111276;1198;61883;-82
2021/09/09 09:31:12;;;;;;;10.10;6.80;;;;;;;22.59;63.31;99270.23;111057;1204;65008;-79
2021/09/09 09:33:50;;;;;;;6.00;5.40;;;;;;;22.71;63.16;99267.61;110925;1197;61867;-80
2021/09/09 09:36:31;;;;;;;5.80;5.30;;;;;;;22.82;62.10;99264.73;111038;1204;61906;-80
2021/09/09 09:39:13;;;;;;;6.00;4.90;;;;;;;22.91;60.70;99271.70;111187;1204;65285;-81
2021/09/09 09:41:56;;;;;;;6.20;5.20;;;;;;;23.00;60.28;99267.17;111255;1204;70032;-81
2021/09/09 09:44:37;;;;;;;6.60;4.70;;;;;;;23.07;59.33;99270.08;111222;1204;62309;-81
2021/09/09 09:47:06;;;;;;;4.60;4.20;;;;;;;23.13;58.32;99271.71;111174;1204;62522;-82
2021/09/09 09:49:33;;;;;;;4.50;4.10;;;;;;;23.15;56.88;99269.59;111222;1204;61902;-82
2021/09/09 09:52:01;;;;;;;5.00;4.40;;;;;;;23.19;55.84;99264.13;111255;1204;65445;-81
2021/09/09 09:54:28;;;;;;;5.20;4.40;;;;;;;23.27;55.83;99265.73;111266;1204;61806;-81
2021/09/09 09:56:57;;;;;;;4.90;4.50;;;;;;;23.36;56.06;99263.95;111215;1204;64958;-80
2021/09/09 09:59:24;;;;;;;5.90;4.80;;;;;;;23.42;55.63;99263.40;111244;1196;61919;-79
2021/09/09 10:01:51;;;;;;;4.80;4.40;;;;;;;23.47;55.27;99265.77;111286;1204;61928;-80
2021/09/09 10:04:22;;;;;;;5.40;4.90;;;;;;;23.53;54.88;99257.30;111284;1204;65736;-79
2021/09/09 10:06:51;;;;;;;5.60;5.00;;;;;;;23.59;54.89;99258.88;111203;1197;61875;-79
2021/09/09 10:09:19;;;;;;;8.80;5.20;;;;;;;23.66;54.32;99255.77;111233;1204;63999;-81
2021/09/09 10:11:47;;;;;;;5.80;4.70;;;;;;;23.69;53.94;99252.69;111217;1204;61880;-81
2021/09/09 10:14:25;;;;;;;7.10;4.60;;;;;;;23.70;53.61;99249.89;111208;1204;61901;-81
2021/09/09 10:17:00;;;;;;;5.60;4.80;;;;;;;23.72;53.48;99246.75;111243;1204;65190;-79
2021/09/09 10:19:32;;;;;;;7.90;4.90;;;;;;;23.78;53.23;99244.91;111228;1198;61892;-80
2021/09/09 10:22:03;;;;;;;6.90;4.80;;;;;;;23.86;52.75;99248.14;111215;1204;63972;-80
2021/09/09 10:24:33;;;;;;;4.70;4.20;;;;;;;23.90;52.14;99245.19;111207;1204;62460;-80
2021/09/09 10:27:25;;;;;;;5.60;3.90;;;;;;;23.95;51.95;99247.64;111267;1198;62574;-79
2021/09/09 10:30:00;;;;;;;6.70;4.60;;;;;;;24.01;51.66;99238.43;111250;1204;66813;-79
2021/09/09 10:32:47;;;;;;;6.00;4.40;;;;;;;24.04;51.26;99232.92;111215;1204;61870;-80
2021/09/09 10:35:14;;;;;;;6.20;4.60;;;;;;;24.09;50.99;99232.50;111258;1200;63690;-80
2021/09/09 10:37:51;;;;;;;5.90;5.30;;;;;;;24.15;50.94;99230.20;111234;1204;61889;-80
2021/09/09 10:40:36;;;;;;;5.30;4.60;;;;;;;24.19;50.22;99228.59;111223;1198;61917;-79
2021/09/09 10:43:05;;;;;;;4.70;4.30;;;;;;;24.21;49.52;99223.69;111264;1204;66633;-82
2021/09/09 10:45:36;;;;;;;5.60;4.50;;;;;;;24.21;48.89;99222.05;111281;1204;61807;-82
2021/09/09 10:48:05;;;;;;;6.30;4.30;;;;;;;24.23;49.00;99222.72;111249;1204;64691;-80
2021/09/09 10:50:33;;;;;;;6.00;4.50;;;;;;;24.24;48.25;99218.14;111268;1199;61880;-79
2021/09/09 10:53:06;;;;;;;6.80;4.50;;;;;;;24.26;47.76;99216.48;111227;1204;61831;-81
2021/09/09 10:55:35;;;;;;;5.60;4.90;;;;;;;24.30;47.85;99216.41;111251;1204;66792;-81
2021/09/09 10:58:12;;;;;;;5.00;4.50;;;;;;;24.32;48.08;99213.36;111258;1205;61893;-81
2021/09/09 11:01:08;;;;;;;6.40;4.50;;;;;;;24.34;47.28;99212.83;111253;1204;64946;-82
2021/09/09 11:03:48;;;;;;;5.90;4.90;;;;;;;24.33;45.99;99210.05;111218;1197;61798;-79
2021/09/09 11:06:23;;;;;;;7.70;4.60;;;;;;;24.30;46.48;99205.98;111212;1198;62612;-80
2021/09/09 11:08:55;;;;;;;5.90;4.50;;;;;;;24.36;46.51;99206.28;111232;1204;65460;-81
2021/09/09 11:11:31;;;;;;;6.10;4.60;;;;;;;24.41;46.63;99205.77;111202;1204;62056;-80
2021/09/09 11:14:06;;;;;;;5.40;4.90;;;;;;;24.45;46.63;99204.36;111175;1204;63999;-79
2021/09/09 11:16:38;;;;;;;7.20;4.80;;;;;;;24.49;46.51;99205.34;111190;1203;61883;-79
2021/09/09 11:19:07;;;;;;;5.20;4.70;;;;;;;24.51;46.30;99202.73;111198;1203;61957;-79